createdAt,value
2019-01-19T00:00:36.465Z,1.84
2019-01-19T00:03:28.230Z,1.83
2019-01-19T00:06:26.591Z,1.84
2019-01-19T00:09:13.298Z,1.81
2019-01-19T00:12:12.624Z,1.83
2019-01-19T00:15:05.718Z,1.82
2019-01-19T00:18:33.854Z,1.81
2019-01-19T00:21:30.805Z,1.80
2019-01-19T00:24:12.742Z,1.72
2019-01-19T00:27:22.313Z,1.81
2019-01-19T00:30:14.224Z,1.72
2019-01-19T00:33:32.090Z,1.76
2019-01-19T00:36:24.303Z,1.74
2019-01-19T00:39:30.271Z,1.79
2019-01-19T00:42:44.554Z,1.73
2019-01-19T00:45:41.281Z,1.64
2019-01-19T00:48:36.393Z,1.72
2019-01-19T00:51:47.102Z,1.68
2019-01-19T00:54:23.970Z,1.60
2019-01-19T00:57:24.027Z,1.67
2019-01-19T00:59:57.799Z,1.64
2019-01-19T01:02:51.828Z,1.61
2019-01-19T01:05:38.515Z,1.58
2019-01-19T01:08:49.850Z,1.54
2019-01-19T01:11:50.304Z,1.51
2019-01-19T01:14:54.768Z,1.45
2019-01-19T01:17:40.551Z,1.51
2019-01-19T01:20:48.304Z,1.43
2019-01-19T01:23:50.348Z,1.40
2019-01-19T01:27:24.594Z,1.46
2019-01-19T01:30:49.113Z,1.49
2019-01-19T01:33:40.376Z,1.47
2019-01-19T01:36:29.126Z,1.42
2019-01-19T01:39:57.051Z,1.43
2019-01-19T01:42:53.214Z,1.46
2019-01-19T01:45:38.541Z,1.41
2019-01-19T01:48:45.006Z,1.42
2019-01-19T01:51:35.974Z,1.40
2019-01-19T01:54:36.813Z,1.40
2019-01-19T01:57:22.611Z,1.39
2019-01-19T02:00:31.803Z,1.40
2019-01-19T02:03:43.582Z,1.55
2019-01-19T02:06:55.702Z,1.52
2019-01-19T02:09:51.747Z,1.53
2019-01-19T02:12:51.969Z,1.51
2019-01-19T02:15:40.529Z,1.43
2019-01-19T02:18:19.213Z,1.42
2019-01-19T02:21:24.768Z,1.51
2019-01-19T02:24:29.962Z,1.50
2019-01-19T02:27:23.631Z,1.46
2019-01-19T02:30:34.112Z,1.42
2019-01-19T02:33:30.139Z,1.43
2019-01-19T02:36:15.625Z,1.51
2019-01-19T02:38:55.100Z,1.42
2019-01-19T02:42:11.168Z,1.41
2019-01-19T02:45:08.282Z,1.38
2019-01-19T02:48:04.105Z,1.36
2019-01-19T02:50:50.799Z,1.28
2019-01-19T02:53:46.985Z,1.28
2019-01-19T02:56:39.923Z,1.33
2019-01-19T03:00:01.686Z,1.36
2019-01-19T03:02:54.170Z,1.43
2019-01-19T03:05:36.246Z,1.43
2019-01-19T03:09:04.313Z,1.44
2019-01-19T03:12:14.020Z,1.41
2019-01-19T03:15:16.140Z,1.37
2019-01-19T03:18:37.899Z,1.32
2019-01-19T03:21:42.512Z,1.36
2019-01-19T03:24:38.475Z,1.30
2019-01-19T03:27:52.787Z,1.27
2019-01-19T03:31:01.349Z,1.18
2019-01-19T03:34:05.563Z,1.21
2019-01-19T03:37:03.676Z,1.26
2019-01-19T03:39:57.914Z,1.31
2019-01-19T03:43:17.335Z,1.25
2019-01-19T03:46:20.024Z,1.24
2019-01-19T03:49:38.798Z,1.27
2019-01-19T03:52:30.473Z,1.28
2019-01-19T03:55:16.853Z,1.29
2019-01-19T03:58:10.929Z,1.24
2019-01-19T04:00:59.777Z,1.21
2019-01-19T04:03:47.502Z,1.18
2019-01-19T04:06:52.956Z,1.14
2019-01-19T04:10:05.663Z,1.08
2019-01-19T04:13:14.170Z,1.16
2019-01-19T04:16:23.269Z,1.11
2019-01-19T04:19:01.129Z,1.15
2019-01-19T04:22:02.330Z,1.16
2019-01-19T04:24:59.753Z,1.17
2019-01-19T04:27:28.707Z,1.18
2019-01-19T04:29:57.651Z,1.13
2019-01-19T04:32:26.726Z,1.06
2019-01-19T04:34:55.691Z,1.01
2019-01-19T04:37:24.541Z,0.98
2019-01-19T04:39:53.370Z,1.00
2019-01-19T04:42:22.404Z,0.97
2019-01-19T04:44:51.267Z,1.08
2019-01-19T04:47:20.225Z,1.10
2019-01-19T04:49:49.120Z,1.11
2019-01-19T04:52:17.922Z,1.11
2019-01-19T04:54:48.405Z,1.08
2019-01-19T04:57:17.286Z,1.10
2019-01-19T04:59:46.173Z,1.09
2019-01-19T05:02:15.015Z,1.13
2019-01-19T05:04:43.883Z,1.14
2019-01-19T05:07:12.652Z,1.06
2019-01-19T05:09:41.536Z,1.07
2019-01-19T05:12:10.413Z,1.04
2019-01-19T05:14:39.282Z,1.00
2019-01-19T05:17:08.062Z,0.87
2019-01-19T05:19:37.006Z,0.81
2019-01-19T05:22:05.860Z,0.75
2019-01-19T05:24:34.810Z,0.76
2019-01-19T05:27:03.708Z,0.79
2019-01-19T05:29:32.557Z,0.84
2019-01-19T05:32:01.488Z,0.95
2019-01-19T05:34:30.375Z,0.99
2019-01-19T05:36:59.221Z,0.93
2019-01-19T05:39:28.085Z,0.99
2019-01-19T05:41:56.956Z,1.15
2019-01-19T05:44:25.727Z,1.03
2019-01-19T05:46:54.601Z,0.96
2019-01-19T05:49:23.526Z,1.04
2019-01-19T05:51:52.582Z,1.08
2019-01-19T05:54:21.510Z,1.07
2019-01-19T05:56:50.479Z,0.93
2019-01-19T05:59:19.355Z,0.99
2019-01-19T06:01:48.198Z,0.97
2019-01-19T06:04:17.122Z,0.99
2019-01-19T06:06:46.994Z,1.10
2019-01-19T06:09:16.196Z,1.12
2019-01-19T06:11:45.063Z,1.14
2019-01-19T06:14:14.029Z,1.10
2019-01-19T06:16:43.000Z,1.06
2019-01-19T06:19:12.274Z,1.11
2019-01-19T06:22:00.161Z,1.03
2019-01-19T06:24:29.049Z,1.02
2019-01-19T06:26:57.966Z,1.01
2019-01-19T06:29:26.870Z,1.03
2019-01-19T06:31:55.826Z,0.99
2019-01-19T06:34:24.619Z,0.94
2019-01-19T06:36:55.002Z,0.97
2019-01-19T06:39:24.145Z,0.98
2019-01-19T06:41:53.030Z,0.93
2019-01-19T06:44:21.944Z,0.87
2019-01-19T06:46:50.850Z,0.85
2019-01-19T06:49:19.708Z,0.79
2019-01-19T06:51:48.590Z,0.89
2019-01-19T06:54:17.772Z,0.83
2019-01-19T06:56:46.532Z,0.88
2019-01-19T06:59:17.449Z,0.87
2019-01-19T07:01:46.072Z,0.84
2019-01-19T07:04:14.914Z,0.88
2019-01-19T07:06:43.827Z,0.86
2019-01-19T07:09:12.747Z,0.74
2019-01-19T07:11:41.677Z,0.77
2019-01-19T07:14:10.625Z,0.72
2019-01-19T07:16:39.469Z,0.54
2019-01-19T07:19:08.473Z,0.54
2019-01-19T07:21:37.350Z,0.56
2019-01-19T07:24:06.266Z,0.65
2019-01-19T07:26:35.226Z,0.65
2019-01-19T07:29:04.198Z,0.57
2019-01-19T07:31:33.194Z,0.48
2019-01-19T07:34:02.186Z,0.45
2019-01-19T07:36:31.090Z,0.47
2019-01-19T07:39:00.102Z,0.46
2019-01-19T07:41:29.026Z,0.44
2019-01-19T07:43:57.912Z,0.39
2019-01-19T07:46:27.385Z,0.32
2019-01-19T07:48:56.312Z,0.27
2019-01-19T07:51:25.752Z,0.24
2019-01-19T07:53:54.645Z,0.25
2019-01-19T07:56:24.891Z,0.29
2019-01-19T07:58:53.778Z,0.32
2019-01-19T08:01:22.694Z,0.46
2019-01-19T08:03:51.662Z,0.60
2019-01-19T08:06:20.534Z,0.47
2019-01-19T08:08:49.335Z,0.33
2019-01-19T08:11:18.280Z,0.39
2019-01-19T08:13:47.128Z,0.47
2019-01-19T08:16:15.998Z,0.45
2019-01-19T08:18:44.927Z,0.42
2019-01-19T08:21:13.819Z,0.26
2019-01-19T08:23:42.724Z,0.35
2019-01-19T08:26:11.640Z,0.24
2019-01-19T08:28:40.538Z,0.20
2019-01-19T08:31:09.386Z,0.38
2019-01-19T08:33:38.275Z,0.37
2019-01-19T08:36:07.198Z,0.44
2019-01-19T08:38:36.152Z,0.51
2019-01-19T08:41:05.200Z,0.52
2019-01-19T08:43:54.920Z,0.56
2019-01-19T08:46:23.851Z,0.62
2019-01-19T08:48:52.833Z,0.59
2019-01-19T08:51:21.710Z,0.64
2019-01-19T08:53:50.718Z,0.67
2019-01-19T08:56:19.694Z,0.73
2019-01-19T08:58:48.675Z,0.81
2019-01-19T09:01:17.590Z,0.86
2019-01-19T09:03:46.403Z,0.87
2019-01-19T09:06:15.393Z,0.94
2019-01-19T09:08:44.254Z,0.88
2019-01-19T09:11:13.243Z,0.76
2019-01-19T09:13:42.136Z,0.74
2019-01-19T09:16:13.299Z,0.69
2019-01-19T09:18:42.201Z,0.59
2019-01-19T09:21:11.166Z,0.65
2019-01-19T09:23:46.491Z,0.72
2019-01-19T09:26:15.415Z,0.75
2019-01-19T09:28:44.390Z,0.75
2019-01-19T09:31:13.290Z,0.78
2019-01-19T09:33:42.397Z,0.82
2019-01-19T09:36:11.482Z,0.93
2019-01-19T09:38:40.369Z,0.97
2019-01-19T09:41:09.259Z,1.07
2019-01-19T09:43:38.207Z,1.12
2019-01-19T09:46:07.206Z,1.18
2019-01-19T09:48:36.159Z,1.11
2019-01-19T09:51:05.311Z,1.07
2019-01-19T09:56:02.238Z,1.02
2019-01-19T09:58:31.877Z,1.06
2019-01-19T10:01:00.848Z,1.08
2019-01-19T10:03:29.770Z,1.23
2019-01-19T10:05:58.716Z,1.10
2019-01-19T10:08:27.689Z,1.11
2019-01-19T10:10:56.927Z,1.29
2019-01-19T10:13:25.854Z,1.34
2019-01-19T10:15:54.783Z,1.41
2019-01-19T10:18:24.083Z,1.60
2019-01-19T10:20:52.989Z,1.44
2019-01-19T10:23:21.947Z,1.56
2019-01-19T10:25:50.915Z,1.63
2019-01-19T10:28:19.837Z,1.75
2019-01-19T10:30:48.789Z,1.90
2019-01-19T10:33:19.299Z,2.01
2019-01-19T10:35:48.291Z,1.91
2019-01-19T10:38:17.175Z,2.12
2019-01-19T10:40:46.168Z,2.07
2019-01-19T10:43:15.109Z,2.20
2019-01-19T10:45:44.345Z,2.02
2019-01-19T10:48:13.319Z,2.05
2019-01-19T10:50:42.255Z,2.10
2019-01-19T10:53:11.268Z,2.28
2019-01-19T10:55:40.245Z,2.48
2019-01-19T10:58:09.256Z,2.81
2019-01-19T11:00:38.297Z,2.94
2019-01-19T11:03:07.261Z,2.92
2019-01-19T11:05:36.275Z,3.09
2019-01-19T11:08:07.344Z,3.16
2019-01-19T11:10:36.330Z,3.33
2019-01-19T11:13:05.322Z,3.28
2019-01-19T11:15:34.314Z,3.29
2019-01-19T11:18:09.436Z,3.18
2019-01-19T11:20:38.329Z,3.17
2019-01-19T11:23:07.384Z,3.30
2019-01-19T11:25:36.371Z,3.31
2019-01-19T11:28:05.546Z,3.30
2019-01-19T11:30:34.607Z,3.47
2019-01-19T11:33:03.603Z,3.62
2019-01-19T11:35:32.587Z,3.70
2019-01-19T11:38:03.224Z,3.76
2019-01-19T11:40:37.154Z,3.85
2019-01-19T11:43:07.474Z,4.06
2019-01-19T11:45:36.604Z,4.19
2019-01-19T11:48:06.311Z,4.18
2019-01-19T11:50:35.321Z,4.02
2019-01-19T11:53:04.425Z,4.06
2019-01-19T11:55:33.428Z,4.20
2019-01-19T11:58:04.019Z,4.13
2019-01-19T12:00:34.657Z,3.95
2019-01-19T12:03:03.753Z,3.83
2019-01-19T12:05:32.635Z,3.75
2019-01-19T12:08:02.680Z,3.94
2019-01-19T12:10:31.714Z,4.02
2019-01-19T12:13:00.721Z,4.30
2019-01-19T12:15:29.768Z,4.23
2019-01-19T12:17:58.804Z,4.47
2019-01-19T12:20:39.198Z,4.65
2019-01-19T12:23:08.715Z,4.52
2019-01-19T12:25:38.334Z,4.51
2019-01-19T12:28:07.422Z,4.68
2019-01-19T12:30:36.539Z,4.46
2019-01-19T12:33:05.972Z,4.27
2019-01-19T12:35:35.021Z,4.31
2019-01-19T12:38:04.243Z,4.25
2019-01-19T12:40:33.370Z,4.42
2019-01-19T12:43:05.591Z,4.37
2019-01-19T12:45:40.632Z,4.46
2019-01-19T12:48:09.722Z,4.71
2019-01-19T12:50:39.419Z,4.27
2019-01-19T12:53:08.513Z,4.50
2019-01-19T12:55:38.156Z,4.62
2019-01-19T12:58:08.824Z,4.66
2019-01-19T13:00:38.692Z,4.76
2019-01-19T13:03:08.278Z,4.76
2019-01-19T13:05:40.620Z,4.38
2019-01-19T13:08:11.564Z,4.46
2019-01-19T13:10:54.093Z,4.27
2019-01-19T13:13:27.699Z,4.02
2019-01-19T13:16:23.832Z,4.19
2019-01-19T13:19:35.025Z,4.18
2019-01-19T13:22:48.164Z,4.40
2019-01-19T13:26:04.097Z,4.43
2019-01-19T13:29:08.432Z,4.38
2019-01-19T13:32:04.771Z,4.26
2019-01-19T13:35:35.652Z,4.23
2019-01-19T13:38:47.520Z,4.22
2019-01-19T13:42:05.549Z,4.05
2019-01-19T13:45:00.289Z,4.03
2019-01-19T13:48:06.323Z,3.97
2019-01-19T13:51:02.241Z,3.90
2019-01-19T13:53:52.300Z,3.89
2019-01-19T13:57:17.693Z,3.91
2019-01-19T14:00:26.375Z,3.80
2019-01-19T14:03:29.120Z,3.59
2019-01-19T14:06:20.583Z,3.67
2019-01-19T14:09:45.544Z,3.67
2019-01-19T14:12:59.699Z,3.40
2019-01-19T14:16:08.826Z,3.53
2019-01-19T14:19:13.984Z,3.64
2019-01-19T14:22:27.244Z,3.50
2019-01-19T14:25:40.702Z,3.30
2019-01-19T14:28:41.432Z,3.37
2019-01-19T14:31:52.885Z,3.52
2019-01-19T14:34:56.445Z,3.51
2019-01-19T14:37:57.670Z,3.50
2019-01-19T14:41:13.388Z,3.28
2019-01-19T14:44:25.852Z,3.22
2019-01-19T14:47:44.882Z,3.20
2019-01-19T14:50:38.754Z,3.23
2019-01-19T14:53:32.205Z,3.07
2019-01-19T14:56:46.810Z,2.99
2019-01-19T14:59:46.762Z,2.90
2019-01-19T15:03:00.131Z,2.95
2019-01-19T15:06:00.477Z,3.14
2019-01-19T15:09:28.717Z,3.08
2019-01-19T15:12:22.582Z,3.06
2019-01-19T15:15:00.832Z,2.88
2019-01-19T15:18:05.556Z,2.88
2019-01-19T15:20:44.926Z,2.87
2019-01-19T15:23:38.459Z,2.81
2019-01-19T15:26:33.530Z,2.89
2019-01-19T15:29:24.296Z,2.91
2019-01-19T15:32:24.151Z,2.82
2019-01-19T15:35:28.490Z,2.89
2019-01-19T15:38:36.376Z,2.80
2019-01-19T15:41:50.443Z,2.77
2019-01-19T15:44:57.781Z,2.70
2019-01-19T15:48:02.569Z,2.74
2019-01-19T15:51:04.196Z,2.73
2019-01-19T15:54:09.524Z,2.77
2019-01-19T15:56:55.330Z,2.78
2019-01-19T16:00:14.212Z,2.84
2019-01-19T16:03:20.543Z,2.87
2019-01-19T16:06:33.517Z,2.86
2019-01-19T16:09:26.456Z,2.81
2019-01-19T16:12:35.733Z,2.63
2019-01-19T16:15:42.186Z,2.57
2019-01-19T16:18:56.433Z,2.75
2019-01-19T16:21:48.080Z,2.80
2019-01-19T16:24:23.426Z,2.85
2019-01-19T16:27:29.268Z,2.80
2019-01-19T16:30:30.755Z,2.85
2019-01-19T16:33:21.614Z,2.80
2019-01-19T16:35:57.935Z,2.87
2019-01-19T16:39:26.121Z,2.70
2019-01-19T16:42:12.548Z,2.71
2019-01-19T16:45:20.958Z,2.69
2019-01-19T16:48:25.752Z,2.65
2019-01-19T16:51:30.650Z,2.60
2019-01-19T16:54:25.313Z,2.57
2019-01-19T16:57:22.279Z,2.60
2019-01-19T17:00:27.825Z,2.43
2019-01-19T17:03:38.652Z,2.41
2019-01-19T17:06:23.615Z,2.42
2019-01-19T17:09:33.102Z,2.34
2019-01-19T17:12:53.788Z,2.43
2019-01-19T17:15:41.471Z,2.48
2019-01-19T17:18:34.868Z,2.50
2019-01-19T17:21:55.969Z,2.39
2019-01-19T17:25:13.835Z,2.40
2019-01-19T17:28:24.122Z,2.28
2019-01-19T17:31:36.071Z,2.41
2019-01-19T17:34:29.646Z,2.36
2019-01-19T17:37:20.093Z,2.17
2019-01-19T17:40:29.430Z,2.18
2019-01-19T17:43:33.503Z,2.07
2019-01-19T17:46:52.608Z,2.09
2019-01-19T17:49:52.828Z,2.12
2019-01-19T17:53:11.857Z,2.22
2019-01-19T17:56:22.956Z,2.17
2019-01-19T17:59:14.160Z,2.22
2019-01-19T18:02:22.921Z,2.20
2019-01-19T18:05:13.508Z,2.12
2019-01-19T18:08:32.473Z,2.02
2019-01-19T18:11:50.263Z,2.12
2019-01-19T18:14:55.757Z,2.06
2019-01-19T18:18:09.854Z,2.06
2019-01-19T18:21:16.569Z,1.89
2019-01-19T18:24:33.200Z,1.91
2019-01-19T18:27:32.002Z,1.92
2019-01-19T18:30:40.864Z,1.94
2019-01-19T18:33:36.373Z,1.89
2019-01-19T18:36:30.006Z,1.96
2019-01-19T18:39:24.896Z,1.90
2019-01-19T18:42:41.386Z,1.90
2019-01-19T18:45:57.897Z,1.84
2019-01-19T18:49:06.886Z,1.88
2019-01-19T18:52:21.989Z,1.93
2019-01-19T18:55:34.849Z,1.96
2019-01-19T18:58:34.294Z,1.91
2019-01-19T19:01:31.292Z,1.89
2019-01-19T19:04:24.979Z,1.86
2019-01-19T19:07:27.925Z,1.78
2019-01-19T19:10:18.861Z,1.86
2019-01-19T19:13:13.493Z,1.73
2019-01-19T19:16:01.389Z,1.83
2019-01-19T19:19:05.871Z,1.68
2019-01-19T19:22:07.041Z,1.59
2019-01-19T19:25:13.450Z,1.65
2019-01-19T19:27:57.013Z,1.64
2019-01-19T19:31:04.795Z,1.73
2019-01-19T19:33:58.630Z,1.73
2019-01-19T19:36:50.849Z,1.62
2019-01-19T19:39:37.023Z,1.70
2019-01-19T19:42:35.263Z,1.68
2019-01-19T19:45:35.878Z,1.60
2019-01-19T19:48:14.215Z,1.61
2019-01-19T19:51:25.936Z,1.73
2019-01-19T19:53:54.907Z,1.58
2019-01-19T19:56:22.391Z,1.51
2019-01-19T19:58:51.394Z,1.50
2019-01-19T20:01:20.451Z,1.48
2019-01-19T20:03:49.509Z,1.48
2019-01-19T20:06:18.456Z,1.43
2019-01-19T20:08:47.553Z,1.37
2019-01-19T20:11:17.550Z,1.36
2019-01-19T20:13:46.644Z,1.41
2019-01-19T20:16:15.640Z,1.28
2019-01-19T20:18:44.617Z,1.27
2019-01-19T20:21:13.653Z,1.42
2019-01-19T20:23:42.608Z,1.28
2019-01-19T20:26:11.679Z,1.12
2019-01-19T20:28:40.731Z,1.21
2019-01-19T20:31:09.756Z,1.16
2019-01-19T20:33:38.767Z,1.11
2019-01-19T20:36:07.698Z,1.10
2019-01-19T20:38:36.635Z,1.03
2019-01-19T20:41:05.651Z,1.13
2019-01-19T20:43:34.696Z,1.15
2019-01-19T20:46:03.683Z,1.03
2019-01-19T20:48:32.727Z,1.12
2019-01-19T20:51:01.683Z,1.18
2019-01-19T20:53:30.711Z,1.20
2019-01-19T20:55:59.632Z,1.01
2019-01-19T20:58:28.621Z,0.95
2019-01-19T21:00:57.682Z,0.90
2019-01-19T21:03:26.611Z,0.83
2019-01-19T21:05:55.646Z,0.90
2019-01-19T21:08:24.607Z,0.89
2019-01-19T21:10:53.612Z,0.67
2019-01-19T21:13:22.611Z,0.73
2019-01-19T21:15:51.593Z,0.70
2019-01-19T21:18:20.604Z,0.69
2019-01-19T21:20:49.552Z,0.80
2019-01-19T21:23:18.514Z,0.60
2019-01-19T21:25:47.588Z,0.51
2019-01-19T21:28:16.609Z,0.51
2019-01-19T21:30:45.692Z,0.48
2019-01-19T21:33:14.871Z,0.41
2019-01-19T21:35:43.914Z,0.41
2019-01-19T21:38:12.963Z,0.35
2019-01-19T21:40:41.880Z,0.41
2019-01-19T21:43:10.720Z,0.44
2019-01-19T21:45:39.819Z,0.45
2019-01-19T21:48:08.808Z,0.48
2019-01-19T21:50:37.893Z,0.42
2019-01-19T21:53:07.124Z,0.36
2019-01-19T21:55:36.084Z,0.40
2019-01-19T21:58:05.408Z,0.55
2019-01-19T22:00:34.384Z,0.48
2019-01-19T22:03:03.440Z,0.40
2019-01-19T22:05:32.666Z,0.27
2019-01-19T22:08:01.676Z,0.34
2019-01-19T22:10:30.696Z,0.45
2019-01-19T22:12:59.810Z,0.47
2019-01-19T22:15:28.761Z,0.57
2019-01-19T22:17:58.155Z,0.51
2019-01-19T22:20:27.158Z,0.60
2019-01-19T22:22:56.129Z,0.58
2019-01-19T22:25:25.118Z,0.62
2019-01-19T22:27:54.137Z,0.57
2019-01-19T22:30:24.664Z,0.59
2019-01-19T22:32:55.462Z,0.57
2019-01-19T22:35:27.119Z,0.52
2019-01-19T22:37:56.056Z,0.43
2019-01-19T22:40:24.965Z,0.38
2019-01-19T22:42:59.163Z,0.44
2019-01-19T22:45:28.072Z,0.41
2019-01-19T22:47:56.964Z,0.48
2019-01-19T22:50:25.967Z,0.44
2019-01-19T22:52:54.971Z,0.45
2019-01-19T22:55:23.919Z,0.41
2019-01-19T22:57:52.962Z,0.43
2019-01-19T23:01:17.570Z,0.44
2019-01-19T23:03:46.604Z,0.44
2019-01-19T23:06:15.658Z,0.12
2019-01-19T23:08:44.692Z,0.15
2019-01-19T23:11:13.754Z,0.21
2019-01-19T23:13:42.877Z,-0.03
2019-01-19T23:16:11.942Z,-0.09
2019-01-19T23:18:40.878Z,0.08
2019-01-19T23:21:09.827Z,-0.02
2019-01-19T23:23:38.799Z,0.03
2019-01-19T23:26:07.893Z,-0.08
2019-01-19T23:28:36.898Z,0.01
2019-01-19T23:31:05.871Z,0.04
2019-01-19T23:33:34.928Z,0.06
2019-01-19T23:36:03.934Z,0.17
2019-01-19T23:38:32.911Z,0.22
2019-01-19T23:41:08.688Z,0.24
2019-01-19T23:43:32.598Z,0.22
2019-01-19T23:46:01.576Z,0.14
2019-01-19T23:48:30.607Z,0.15
2019-01-19T23:50:59.562Z,0.21
2019-01-19T23:53:28.589Z,0.17
2019-01-19T23:55:57.555Z,0.24
2019-01-19T23:58:26.483Z,0.02
